Time;durP1;ratioP1;P1;durP2;ratioP2;P2;SDS_P1;SDS_P2;PMS_P1;PMS_P2;Temp;Humidity;BMP_temperature;BMP_pressure;BME280_temperature;BME280_humidity;BME280_pressure;Samples;Min_cycle;Max_cycle;Signal;HPM_P1;HPM_P2
2022/08/02 00:00:28;;;;;;;11.57;2.05;;;;;;;-144.47;54.99;53251.34;5021336;28;20025;-88
2022/08/02 00:02:54;;;;;;;6.43;2.17;;;;;;;-144.47;55.15;53267.25;5029545;28;20468;-89
2022/08/02 00:05:19;;;;;;;7.72;2.22;;;;;;;-144.47;55.28;53314.91;5019069;28;20025;-89
2022/08/02 00:07:48;;;;;;;7.10;1.85;;;;;;;-144.47;55.37;53271.22;5031173;28;20022;-89
2022/08/02 00:10:14;;;;;;;7.85;2.65;;;;;;;-144.47;55.49;53299.03;5031112;28;20048;-88
2022/08/02 00:12:40;;;;;;;10.68;2.42;;;;;;;-144.47;55.33;53269.22;5029375;28;20429;-88
2022/08/02 00:15:11;;;;;;;12.35;2.25;;;;;;;-144.47;55.40;53308.97;5010968;28;20417;-87
2022/08/02 00:17:36;;;;;;;13.80;2.55;;;;;;;-144.47;55.50;53281.16;5015693;28;20054;-88
2022/08/02 00:20:04;;;;;;;15.90;2.80;;;;;;;-144.47;55.69;53320.88;5049720;28;20116;-88
2022/08/02 00:22:29;;;;;;;6.95;2.33;;;;;;;-144.47;55.79;53285.13;5034386;28;20113;-88
2022/08/02 00:24:55;;;;;;;9.25;2.97;;;;;;;-144.47;56.01;53308.97;5035365;28;20455;-89
2022/08/02 00:27:23;;;;;;;7.50;2.35;;;;;;;-144.47;56.21;53279.16;5033722;28;20276;-89
2022/08/02 00:29:54;;;;;;;6.28;2.53;;;;;;;-144.47;56.41;53269.22;5015390;28;20137;-90
2022/08/02 00:32:27;;;;;;;5.65;2.10;;;;;;;-144.47;56.46;53301.03;5016239;28;20136;-90
2022/08/02 00:34:53;;;;;;;8.60;2.63;;;;;;;-144.47;56.34;53289.09;5017270;28;20072;-89
2022/08/02 00:37:18;;;;;;;11.98;2.25;;;;;;;-144.47;56.64;53326.84;5015891;28;20034;-88
2022/08/02 00:39:44;;;;;;;14.20;2.40;;;;;;;-144.47;56.86;53259.31;5016051;28;20026;-89
2022/08/02 00:42:15;;;;;;;8.20;2.58;;;;;;;-144.47;56.76;53291.09;5015888;28;20465;-90
2022/08/02 00:44:43;;;;;;;12.85;3.40;;;;;;;-144.47;56.48;53253.34;5014319;28;20025;-90
2022/08/02 00:47:11;;;;;;;5.95;2.03;;;;;;;-144.47;56.40;53295.06;5013957;28;20112;-89
2022/08/02 00:49:36;;;;;;;7.43;2.22;;;;;;;-144.47;56.22;53277.19;5030903;28;20029;-89
2022/08/02 00:52:05;;;;;;;9.18;2.35;;;;;;;-144.47;56.44;53285.13;5008866;28;20100;-88
2022/08/02 00:54:36;;;;;;;;;;;;;;;-144.47;56.37;53293.06;4995067;28;20023;-88
2022/08/02 00:57:03;;;;;;;5.45;1.73;;;;;;;-144.47;56.41;53251.34;5013763;28;19963;-89
2022/08/02 00:59:31;;;;;;;6.85;2.50;;;;;;;-144.47;56.44;53273.22;5028492;28;20022;-88
2022/08/02 01:02:00;;;;;;;11.10;3.17;;;;;;;-144.47;56.52;53299.03;5027868;28;20026;-88
2022/08/02 01:04:26;;;;;;;7.10;2.30;;;;;;;-144.47;56.51;53297.03;5043990;28;20029;-88
2022/08/02 01:06:54;;;;;;;9.52;2.50;;;;;;;-144.47;56.42;53273.22;5017436;28;20388;-90
2022/08/02 01:09:24;;;;;;;5.57;2.10;;;;;;;-144.47;56.26;53297.03;5021221;28;20033;-89
2022/08/02 01:11:52;;;;;;;8.15;3.08;;;;;;;-144.47;56.25;53283.13;5016575;28;20117;-89
2022/08/02 01:14:18;;;;;;;7.30;2.17;;;;;;;-144.47;56.37;53322.88;5015563;28;20025;-89
2022/08/02 01:16:51;;;;;;;13.65;3.08;;;;;;;-144.47;56.15;53293.06;5034582;28;20029;-89
2022/08/02 01:19:35;;;;;;;8.68;2.47;;;;;;;-144.47;56.00;53328.81;5020347;28;20048;-89
2022/08/02 01:22:23;;;;;;;5.55;2.03;;;;;;;-144.47;56.07;53271.22;5032687;28;20026;-89
2022/08/02 01:25:16;;;;;;;6.97;2.53;;;;;;;-144.47;55.69;53303.00;5020983;28;20029;-90
2022/08/02 01:27:49;;;;;;;9.52;2.20;;;;;;;-144.47;55.35;53265.25;5034841;28;20331;-89
2022/08/02 01:30:17;;;;;;;13.13;2.35;;;;;;;-144.47;55.26;53297.03;5022170;28;20068;-87
2022/08/02 01:32:47;;;;;;;9.50;2.08;;;;;;;-144.47;55.10;53293.06;5014628;28;20029;-88
2022/08/02 01:35:23;;;;;;;12.63;2.20;;;;;;;-144.47;54.82;53326.84;5013735;28;20052;-88
2022/08/02 01:37:57;;;;;;;6.90;2.05;;;;;;;-144.47;54.83;53283.13;5034138;28;20037;-88
2022/08/02 01:40:29;;;;;;;11.68;2.50;;;;;;;-144.47;55.20;53287.13;5031543;28;20025;-88
2022/08/02 01:42:56;;;;;;;7.68;2.35;;;;;;;-144.47;55.34;53281.16;5014436;28;20087;-89
2022/08/02 01:45:25;;;;;;;6.03;2.30;;;;;;;-144.47;55.34;53281.16;5014819;28;20034;-89
2022/08/02 01:47:52;;;;;;;6.82;2.10;;;;;;;-144.47;55.35;53289.09;5014918;28;20176;-89
2022/08/02 01:50:28;;;;;;;11.95;2.40;;;;;;;-144.47;55.40;53277.19;5028389;28;20049;-88
2022/08/02 01:53:02;;;;;;;8.80;2.35;;;;;;;-144.47;55.30;53289.09;5013106;28;20025;-88
2022/08/02 01:55:36;;;;;;;6.18;2.03;;;;;;;-144.47;55.51;53303.00;5013451;28;20061;-89
2022/08/02 01:58:04;;;;;;;8.73;2.25;;;;;;;-144.47;55.35;53275.19;5027053;28;20032;-88
2022/08/02 02:00:38;;;;;;;12.40;2.38;;;;;;;-144.47;55.64;53283.13;5029437;28;20386;-88
2022/08/02 02:03:07;;;;;;;8.93;2.33;;;;;;;-144.47;55.53;53303.00;5013893;28;20113;-89
2022/08/02 02:05:34;;;;;;;7.88;2.20;;;;;;;-144.47;55.50;53314.91;5023590;28;20028;-89
2022/08/02 02:08:06;;;;;;;22.60;3.03;;;;;;;-144.47;55.64;53303.00;5029618;28;20030;-89
2022/08/02 02:10:37;;;;;;;7.82;2.20;;;;;;;-144.47;55.67;53297.03;5035736;28;20472;-88
2022/08/02 02:13:06;;;;;;;16.63;2.40;;;;;;;-144.47;55.92;53281.16;5050556;28;20022;-90
2022/08/02 02:15:36;;;;;;;8.60;2.22;;;;;;;-144.47;56.07;53326.84;5033869;28;20032;-89
2022/08/02 02:18:03;;;;;;;10.80;2.65;;;;;;;-144.47;56.02;53295.06;5035695;28;20040;-89
2022/08/02 02:20:30;;;;;;;6.93;2.00;;;;;;;-144.47;55.96;53316.91;5025122;28;20049;-88
2022/08/02 02:23:16;;;;;;;7.72;2.95;;;;;;;-144.47;55.98;53273.22;5032462;28;20060;-88
2022/08/02 02:25:43;;;;;;;10.45;2.58;;;;;;;-144.47;55.97;53273.22;5015202;28;20040;-89
2022/08/02 02:28:12;;;;;;;10.93;2.30;;;;;;;-144.47;56.23;53308.97;5030221;28;20072;-89
2022/08/02 02:30:47;;;;;;;7.63;2.55;;;;;;;-144.47;56.11;53320.88;5019222;28;20041;-89
2022/08/02 02:33:26;;;;;;;8.88;2.10;;;;;;;-144.47;55.92;53301.03;5039490;28;20060;-90
2022/08/02 02:35:56;;;;;;;8.95;2.22;;;;;;;-144.47;55.99;53273.22;5019773;28;20105;-88
2022/08/02 02:38:23;;;;;;;6.20;2.10;;;;;;;-144.47;55.65;53281.16;5013041;28;20022;-89
2022/08/02 02:40:51;;;;;;;10.90;2.60;;;;;;;-144.47;55.75;53305.00;5014039;28;20029;-89
2022/08/02 02:43:17;;;;;;;11.55;3.33;;;;;;;-144.47;55.54;53344.72;5025180;28;20013;-89
2022/08/02 02:45:45;;;;;;;9.50;2.28;;;;;;;-144.47;55.75;53297.03;5035514;28;20485;-89
2022/08/02 02:48:16;;;;;;;5.55;2.38;;;;;;;-144.47;55.83;53279.16;5020624;28;20021;-88
2022/08/02 02:50:42;;;;;;;12.07;2.15;;;;;;;-144.47;55.57;53314.91;5006981;28;20053;-89
2022/08/02 02:53:11;;;;;;;11.65;1.88;;;;;;;-144.47;55.77;53306.97;5020378;28;20457;-89
2022/08/02 02:55:38;;;;;;;11.35;2.20;;;;;;;-144.47;56.03;53305.00;5012160;28;20034;-88
2022/08/02 02:58:13;;;;;;;9.10;2.42;;;;;;;-144.47;55.96;53306.97;5012433;28;20136;-88
2022/08/02 03:03:26;;;;;;;13.77;3.00;;;;;;;-144.47;55.57;53340.75;5037590;28;20481;-88
2022/08/02 03:05:51;;;;;;;8.82;2.35;;;;;;;-144.47;54.97;53316.91;5035214;28;20136;-90
2022/08/02 03:08:17;;;;;;;9.98;2.65;;;;;;;-144.47;54.77;53308.97;5033653;28;20061;-88
2022/08/02 03:10:44;;;;;;;12.13;2.40;;;;;;;-144.47;54.53;53301.03;5018176;28;20030;-89
2022/08/02 03:13:11;;;;;;;8.65;1.77;;;;;;;-144.47;54.63;53301.03;5019218;28;20444;-89
2022/08/02 03:15:38;;;;;;;10.80;2.50;;;;;;;-144.47;54.45;53305.00;5016118;28;20458;-89
2022/08/02 03:18:07;;;;;;;9.60;2.60;;;;;;;-144.47;54.48;53308.97;5029695;28;20042;-89
2022/08/02 03:20:35;;;;;;;;;;;;;;;-144.47;54.37;53324.84;5014569;28;20136;-88
2022/08/02 03:23:03;;;;;;;6.03;2.13;;;;;;;-144.47;54.53;53318.91;5014082;28;19910;-89
2022/08/02 03:25:29;;;;;;;12.20;3.55;;;;;;;-144.47;55.12;53287.13;5014446;28;20045;-89
2022/08/02 03:27:57;;;;;;;7.53;2.35;;;;;;;-144.47;54.75;53334.78;5012656;28;20029;-89
2022/08/02 03:30:26;;;;;;;11.60;3.30;;;;;;;-144.47;54.79;53297.03;5012883;28;20025;-89
2022/08/02 03:32:52;;;;;;;7.57;2.50;;;;;;;-144.47;55.14;53326.84;5013983;28;20109;-89
2022/08/02 03:35:19;;;;;;;9.65;2.83;;;;;;;-144.47;55.09;53295.06;5012448;28;20068;-88
2022/08/02 03:37:53;;;;;;;11.13;3.03;;;;;;;-144.47;55.40;53271.22;5019764;28;20097;-89
2022/08/02 03:40:19;;;;;;;12.88;2.65;;;;;;;-144.47;55.40;53328.81;5017956;28;20026;-89
2022/08/02 03:42:49;;;;;;;10.68;2.50;;;;;;;-144.47;55.41;53277.19;5012278;28;20033;-89
2022/08/02 03:45:23;;;;;;;8.73;2.50;;;;;;;-144.47;55.54;53285.13;5025315;28;20184;-89
2022/08/02 03:47:50;;;;;;;12.82;3.47;;;;;;;-144.47;55.72;53312.94;5014825;28;20037;-89
2022/08/02 03:50:17;;;;;;;7.65;3.20;;;;;;;-144.47;55.75;53318.91;5014813;28;20108;-88
2022/08/02 03:52:44;;;;;;;9.65;2.65;;;;;;;-144.47;55.95;53297.03;5013550;28;20049;-88
2022/08/02 03:55:10;;;;;;;12.68;2.80;;;;;;;-144.47;55.85;53314.91;5013963;28;20022;-89
2022/08/02 03:57:41;;;;;;;10.00;2.83;;;;;;;-144.47;56.00;53316.91;5012896;28;20080;-88
2022/08/02 04:00:11;;;;;;;13.02;2.30;;;;;;;-144.47;55.60;53305.00;5021392;28;20083;-89
2022/08/02 04:02:37;;;;;;;6.82;2.15;;;;;;;-144.47;55.89;53303.00;5024516;28;20022;-90
2022/08/02 04:05:09;;;;;;;13.90;2.30;;;;;;;-144.47;56.02;53289.09;5018697;28;20106;-87
2022/08/02 04:07:38;;;;;;;15.15;2.75;;;;;;;-144.47;56.21;53297.03;5026197;28;20462;-89
2022/08/02 04:10:07;;;;;;;15.35;2.78;;;;;;;-144.47;56.11;53297.03;5017920;28;20113;-90
2022/08/02 04:12:35;;;;;;;15.80;3.28;;;;;;;-144.47;56.09;53320.88;5016187;28;20025;-88
2022/08/02 04:15:04;;;;;;;12.13;2.97;;;;;;;-144.47;56.14;53305.00;5018836;28;20034;-89
2022/08/02 04:17:42;;;;;;;12.18;2.45;;;;;;;-144.47;56.34;53308.97;5030146;28;20036;-89
2022/08/02 04:20:18;;;;;;;12.68;2.60;;;;;;;-144.47;56.66;53303.00;5025055;28;20026;-89
2022/08/02 04:23:08;;;;;;;9.98;2.55;;;;;;;-144.47;56.71;53322.88;5019821;28;20018;-89
2022/08/02 04:25:47;;;;;;;;;;;;;;;;;;;;;
2022/08/02 04:28:18;;;;;;;16.23;2.72;;;;;;;-144.47;56.42;53322.88;5018222;28;20124;-90
2022/08/02 04:30:47;;;;;;;7.60;2.50;;;;;;;-144.47;56.07;53297.03;5017495;28;20022;-90
2022/08/02 04:33:13;;;;;;;9.88;2.97;;;;;;;-144.47;56.24;53318.91;5016682;28;20128;-90
2022/08/02 04:35:40;;;;;;;15.77;2.40;;;;;;;-144.47;56.34;53336.78;5022167;28;20402;-89
2022/08/02 04:38:08;;;;;;;11.05;2.60;;;;;;;-144.47;56.41;53350.69;5019825;28;20048;-89
2022/08/02 04:40:37;;;;;;;6.07;2.17;;;;;;;-144.47;56.57;53328.81;5023919;28;20438;-89
2022/08/02 04:43:09;;;;;;;9.95;2.70;;;;;;;-144.47;56.06;53334.78;5021561;28;20029;-90
2022/08/02 04:45:36;;;;;;;8.55;2.67;;;;;;;-144.47;56.00;53318.91;5025144;28;20080;-89
2022/08/02 04:48:26;;;;;;;12.35;3.08;;;;;;;-144.47;55.75;53293.06;5023220;28;20026;-89
2022/08/02 04:50:57;;;;;;;12.40;3.55;;;;;;;-144.47;55.05;53334.78;5015260;28;20034;-89
2022/08/02 04:53:22;;;;;;;12.73;2.80;;;;;;;-144.47;54.75;53291.09;5037804;28;20018;-88
2022/08/02 04:55:48;;;;;;;12.07;2.55;;;;;;;-144.47;54.25;53326.84;5033124;28;20022;-89
2022/08/02 04:58:13;;;;;;;19.35;3.35;;;;;;;-144.47;53.62;53310.94;5036728;28;20044;-89
2022/08/02 05:00:45;;;;;;;11.73;3.25;;;;;;;-144.47;53.90;53314.91;5053984;28;20044;-89
2022/08/02 05:03:13;;;;;;;17.92;2.50;;;;;;;-144.47;53.63;53310.94;5056047;28;20052;-89
2022/08/02 05:05:52;;;;;;;24.83;3.75;;;;;;;-144.47;53.09;53326.84;5054660;28;20040;-89
2022/08/02 05:08:27;;;;;;;9.60;2.53;;;;;;;-144.47;53.04;53318.91;5048813;28;20049;-88
2022/08/02 05:11:02;;;;;;;6.82;2.28;;;;;;;-144.47;52.88;53281.16;5017971;28;20033;-88
2022/08/02 05:16:21;;;;;;;9.32;2.50;;;;;;;-144.47;52.38;53308.97;5041398;28;20103;-90
2022/08/02 05:18:54;;;;;;;15.18;2.55;;;;;;;-144.47;52.15;53297.03;5030103;28;20022;-90
2022/08/02 05:21:19;;;;;;;14.75;3.00;;;;;;;-144.47;52.10;53299.03;5048629;28;20025;-89
2022/08/02 05:23:45;;;;;;;9.55;2.35;;;;;;;-144.47;51.79;53308.97;5032576;28;20077;-87
2022/08/02 05:26:14;;;;;;;6.05;2.00;;;;;;;-144.47;52.12;53305.00;5026776;28;20093;-88
2022/08/02 05:28:44;;;;;;;;;;;;;;;-144.47;52.17;53245.41;5026236;28;20051;-89
2022/08/02 05:31:21;;;;;;;;;;;;;;;;;;;;;
2022/08/02 05:33:58;;;;;;;14.80;2.42;;;;;;;-144.47;51.52;53293.06;5025191;28;20180;-89
2022/08/02 05:36:26;;;;;;;11.13;2.05;;;;;;;-144.47;51.32;53275.19;5022969;28;20109;-90
2022/08/02 05:38:51;;;;;;;15.48;2.38;;;;;;;-144.47;51.22;53305.00;5023886;28;20030;-88
2022/08/02 05:41:18;;;;;;;6.28;2.05;;;;;;;-144.47;51.42;53295.06;5027938;28;20093;-90
2022/08/02 05:43:47;;;;;;;12.13;3.00;;;;;;;-144.47;50.92;53285.13;5026006;28;20044;-87
2022/08/02 05:46:13;;;;;;;8.88;2.47;;;;;;;-144.47;50.33;53295.06;5034376;28;20429;-90
2022/08/02 05:48:53;;;;;;;6.63;2.38;;;;;;;-144.47;49.76;53241.44;5007541;28;20096;-89
2022/08/02 05:51:28;;;;;;;15.18;2.78;;;;;;;-144.47;49.36;53279.16;5034401;28;20112;-90
2022/08/02 05:54:26;;;;;;;6.72;1.95;;;;;;;-144.47;49.16;53273.22;5023837;28;20045;-88
2022/08/02 05:57:14;;;;;;;12.48;1.83;;;;;;;-144.47;49.68;53249.38;5030230;28;20017;-88
2022/08/02 06:00:12;;;;;;;12.13;3.30;;;;;;;-144.47;49.83;53279.16;4948566;29;20119;-89
2022/08/02 06:02:45;;;;;;;11.80;2.40;;;;;;;-144.47;49.88;53259.31;4931487;29;20132;-88
2022/08/02 06:05:22;;;;;;;10.55;2.28;;;;;;;-144.47;50.58;53257.31;4928472;29;20115;-89
2022/08/02 06:07:56;;;;;;;5.40;1.92;;;;;;;-144.47;50.16;53291.09;4941753;29;20129;-89
2022/08/02 06:10:24;;;;;;;9.52;2.10;;;;;;;-144.47;50.13;53279.16;4944313;29;20103;-90
2022/08/02 06:13:08;;;;;;;10.35;2.75;;;;;;;-144.47;49.99;53281.16;4945041;29;20031;-88
2022/08/02 06:15:40;;;;;;;8.50;2.78;;;;;;;-144.47;49.97;53259.31;4945198;29;20039;-89
2022/08/02 06:18:11;;;;;;;14.63;2.33;;;;;;;-144.47;50.16;53265.25;4941051;29;20046;-89
2022/08/02 06:20:42;;;;;;;17.85;3.33;;;;;;;-144.47;49.75;53277.19;4938978;29;20063;-88
2022/08/02 06:23:07;;;;;;;14.50;2.35;;;;;;;-144.47;49.46;53245.41;4928756;29;20046;-87
2022/08/02 06:25:42;;;;;;;8.75;2.30;;;;;;;-144.47;49.36;53320.88;4959495;29;20102;-89
2022/08/02 06:28:08;;;;;;;7.65;2.22;;;;;;;-144.47;49.59;53275.19;4940089;29;20122;-89
2022/08/02 06:30:47;;;;;;;9.52;2.42;;;;;;;-144.47;49.90;53273.22;4956726;28;20042;-89
2022/08/02 06:33:20;;;;;;;13.48;2.15;;;;;;;-144.47;50.03;53277.19;4939932;29;20591;-88
2022/08/02 06:36:07;;;;;;;14.73;2.40;;;;;;;-144.47;49.85;53297.03;4935870;28;20043;-90
2022/08/02 06:38:42;;;;;;;10.35;2.40;;;;;;;-144.47;49.63;53289.09;5034875;28;20032;-91
2022/08/02 06:41:15;;;;;;;6.30;2.05;;;;;;;-144.47;49.31;53253.34;4996289;28;20033;-89
2022/08/02 06:43:56;;;;;;;11.35;2.13;;;;;;;-144.47;48.49;53279.16;5006922;28;20033;-88
2022/08/02 06:46:39;;;;;;;14.82;2.22;;;;;;;-144.47;48.16;53283.13;4997702;28;20026;-90
2022/08/02 06:49:07;;;;;;;12.27;2.67;;;;;;;-144.47;47.77;53245.41;4996181;28;20035;-90
2022/08/02 06:51:35;;;;;;;15.38;2.25;;;;;;;-144.47;47.67;53293.06;5009102;28;20033;-89
2022/08/02 06:54:01;;;;;;;15.75;2.58;;;;;;;-144.47;47.40;53255.34;5021512;28;20032;-90
2022/08/02 06:56:38;;;;;;;16.27;2.65;;;;;;;-144.47;47.64;53221.56;5029120;28;20029;-89
2022/08/02 06:59:04;;;;;;;8.27;2.22;;;;;;;-144.47;47.79;53267.25;4998745;28;20030;-89
2022/08/02 07:01:48;;;;;;;9.80;2.22;;;;;;;-144.47;48.04;53297.03;4996581;28;20026;-88
2022/08/02 07:04:22;;;;;;;7.72;1.80;;;;;;;-144.47;48.06;53265.25;5033277;28;20036;-88
2022/08/02 07:06:56;;;;;;;5.22;2.25;;;;;;;-144.47;47.94;53306.97;5028822;28;20377;-89
2022/08/02 07:09:26;;;;;;;13.32;2.35;;;;;;;-144.47;47.77;53269.22;5016899;28;20057;-90
2022/08/02 07:12:04;;;;;;;10.63;3.33;;;;;;;-144.47;47.37;53271.22;5001846;28;20471;-89
2022/08/02 07:14:32;;;;;;;11.40;2.40;;;;;;;-144.47;46.93;53241.44;5016742;28;20084;-89
2022/08/02 07:16:59;;;;;;;10.23;2.30;;;;;;;-144.47;46.41;53235.47;5027860;28;20124;-87
2022/08/02 07:19:26;;;;;;;9.38;2.13;;;;;;;-144.47;45.83;53269.22;5022494;28;20022;-89
2022/08/02 07:21:53;;;;;;;15.52;2.30;;;;;;;-144.47;45.40;53243.41;5016165;28;20029;-88
2022/08/02 07:24:25;;;;;;;12.70;2.53;;;;;;;-144.47;45.30;53223.56;5015166;28;20069;-90
2022/08/02 07:26:59;;;;;;;6.28;1.70;;;;;;;-144.47;45.16;53245.41;5027023;28;20048;-89
2022/08/02 07:29:26;;;;;;;10.27;2.28;;;;;;;-144.47;44.61;53239.44;5035955;28;20044;-89
2022/08/02 07:31:55;;;;;;;7.55;2.08;;;;;;;-144.47;44.40;53253.34;5030251;28;20030;-89
2022/08/02 07:34:23;;;;;;;7.25;1.92;;;;;;;-144.47;44.46;53273.22;5024593;28;20056;-89
2022/08/02 07:36:49;;;;;;;10.93;2.88;;;;;;;-144.47;44.51;53245.41;5025738;28;20026;-89
2022/08/02 07:39:17;;;;;;;21.48;2.00;;;;;;;-144.47;44.92;53245.41;5021143;28;20053;-88
2022/08/02 07:41:52;;;;;;;14.85;1.85;;;;;;;-144.47;45.03;53267.25;5032901;28;20034;-89
2022/08/02 07:44:20;;;;;;;10.80;1.88;;;;;;;-144.47;45.08;53237.44;5043768;28;20044;-88
2022/08/02 07:46:49;;;;;;;5.20;1.92;;;;;;;-144.47;45.48;53241.44;5031184;28;20030;-88
2022/08/02 07:49:19;;;;;;;10.80;2.10;;;;;;;-144.47;45.48;53237.44;5030201;28;20057;-88
2022/08/02 07:51:52;;;;;;;10.25;2.20;;;;;;;-144.47;45.66;53261.28;5030350;28;20022;-87
2022/08/02 07:54:24;;;;;;;8.90;2.13;;;;;;;-144.47;45.98;53225.53;5027676;28;20072;-88
2022/08/02 07:56:52;;;;;;;13.88;2.65;;;;;;;-144.47;45.70;53243.41;5026000;28;20026;-89
2022/08/02 07:59:18;;;;;;;22.85;2.50;;;;;;;-144.47;45.82;53301.03;5023481;28;20026;-88
2022/08/02 08:01:43;;;;;;;7.60;1.92;;;;;;;-144.47;45.46;53263.28;5022559;28;20054;-88
2022/08/02 08:04:14;;;;;;;12.35;2.10;;;;;;;-144.47;45.53;53245.41;5023599;28;20026;-87
2022/08/02 08:06:50;;;;;;;12.90;2.88;;;;;;;-144.47;45.88;53249.38;5036311;28;20025;-89
2022/08/02 08:09:19;;;;;;;9.25;1.80;;;;;;;-144.47;45.78;53245.41;5023881;28;20101;-89
2022/08/02 08:11:45;;;;;;;4.85;1.60;;;;;;;-144.47;45.78;53227.53;5026787;28;20057;-88
2022/08/02 08:14:14;;;;;;;9.50;2.13;;;;;;;-144.47;45.63;53277.19;5024739;28;20049;-88
2022/08/02 08:16:39;;;;;;;11.85;2.67;;;;;;;-144.47;45.75;53239.44;5034254;28;20033;-88
2022/08/02 08:19:11;;;;;;;5.20;2.00;;;;;;;-144.47;45.63;53235.47;5051152;28;20026;-87
2022/08/02 08:21:37;;;;;;;13.00;1.92;;;;;;;-144.47;45.25;53241.44;5034724;28;20026;-89
2022/08/02 08:24:06;;;;;;;10.98;2.72;;;;;;;-144.47;45.33;53225.53;5037211;28;20041;-87
2022/08/02 08:26:34;;;;;;;14.90;2.47;;;;;;;-144.47;45.06;53235.47;5045142;28;20033;-89
2022/08/02 08:29:00;;;;;;;10.75;2.00;;;;;;;-144.47;45.12;53225.53;5055268;28;20081;-86
2022/08/02 08:31:32;;;;;;;9.88;1.90;;;;;;;-144.47;44.65;53245.41;5036249;28;20041;-89
2022/08/02 08:34:22;;;;;;;7.40;1.90;;;;;;;-144.47;44.44;53269.22;5037276;28;20041;-83
2022/08/02 08:36:51;;;;;;;8.82;2.28;;;;;;;-144.47;44.28;53221.56;5035269;28;20063;-88
2022/08/02 08:39:16;;;;;;;;;;;;;;;-144.47;44.21;53219.56;5053781;28;20108;-88
2022/08/02 08:41:45;;;;;;;12.48;2.60;;;;;;;-144.47;44.24;53223.56;5035609;28;19913;-91
2022/08/02 08:44:20;;;;;;;11.10;2.38;;;;;;;-144.47;44.11;53239.44;5028573;28;20026;-89
2022/08/02 08:46:53;;;;;;;8.45;2.67;;;;;;;-144.47;44.14;53221.56;5027140;28;20026;-88
2022/08/02 08:49:32;;;;;;;7.20;2.40;;;;;;;-144.47;44.29;53231.50;5034423;28;20026;-89
2022/08/02 08:52:03;;;;;;;6.93;2.45;;;;;;;-144.47;44.26;53243.41;5035945;28;20098;-89
2022/08/02 08:54:34;;;;;;;10.55;1.98;;;;;;;-144.47;44.37;53233.47;5035987;28;20038;-88
2022/08/02 08:57:21;;;;;;;9.80;1.75;;;;;;;-144.47;44.41;53241.44;5037607;28;20014;-89
2022/08/02 08:59:51;;;;;;;6.72;1.48;;;;;;;-144.47;43.72;53201.69;5052600;28;20068;-88
2022/08/02 09:02:18;;;;;;;13.13;2.17;;;;;;;-144.47;43.79;53199.72;5056279;28;20014;-88
2022/08/02 09:04:51;;;;;;;10.52;2.00;;;;;;;-144.47;43.65;53261.28;5054875;28;20041;-87
2022/08/02 09:07:18;;;;;;;13.98;2.35;;;;;;;-144.47;43.74;53239.44;5053625;28;20109;-88
2022/08/02 09:09:55;;;;;;;13.75;2.10;;;;;;;-144.47;43.86;53217.59;5050902;28;20135;-89
2022/08/02 09:12:23;;;;;;;10.48;2.20;;;;;;;-144.47;43.76;53229.50;5072139;28;20033;-89
2022/08/02 09:14:49;;;;;;;13.68;2.28;;;;;;;-144.47;44.06;53203.69;5056373;28;20138;-87
2022/08/02 09:17:17;;;;;;;12.25;2.28;;;;;;;-144.47;43.85;53217.59;5024056;28;20105;-87
2022/08/02 09:19:46;;;;;;;7.20;1.85;;;;;;;-144.47;43.79;53219.56;5057865;28;20013;-87
2022/08/02 09:22:13;;;;;;;9.18;2.13;;;;;;;-144.47;43.69;53223.56;5056206;28;20022;-88
2022/08/02 09:24:50;;;;;;;9.30;2.45;;;;;;;-144.47;43.32;53235.47;5057842;28;20085;-88
2022/08/02 09:27:20;;;;;;;9.13;2.38;;;;;;;-144.47;43.58;53237.44;5055595;28;20101;-87
2022/08/02 09:29:58;;;;;;;10.70;2.10;;;;;;;-144.47;43.43;53229.50;5057015;28;20036;-88
2022/08/02 09:32:44;;;;;;;10.60;2.90;;;;;;;-144.47;43.44;53223.56;5057070;28;20116;-88
2022/08/02 09:35:29;;;;;;;6.15;1.98;;;;;;;-144.47;43.61;53237.44;5044106;28;20017;-88
2022/08/02 09:38:11;;;;;;;14.85;2.95;;;;;;;-144.47;43.61;53201.69;5034809;28;20025;-89
2022/08/02 09:40:44;;;;;;;8.77;2.60;;;;;;;-144.47;43.76;53221.56;5035222;28;20030;-87
2022/08/02 09:43:15;;;;;;;8.02;2.15;;;;;;;-144.47;43.49;53217.59;5033905;28;20026;-85
2022/08/02 09:45:58;;;;;;;;;;;;;;;;;;;;;
2022/08/02 09:48:48;;;;;;;6.22;2.15;;;;;;;-144.47;42.90;53191.78;5028960;28;20033;-85
2022/08/02 09:51:20;;;;;;;11.25;2.22;;;;;;;-144.47;43.04;53211.63;5036348;28;20073;-88
2022/08/02 09:54:00;;;;;;;8.13;2.17;;;;;;;-144.47;42.95;53185.81;5053138;28;20140;-87
2022/08/02 09:56:40;;;;;;;4.28;1.83;;;;;;;-144.47;42.79;53183.81;5041430;28;20022;-89
2022/08/02 09:59:09;;;;;;;11.43;2.78;;;;;;;-144.47;43.13;53197.72;5035908;28;20064;-90
2022/08/02 10:01:37;;;;;;;4.50;2.35;;;;;;;-144.47;42.70;53225.53;5034915;28;20073;-89
2022/08/02 10:04:11;;;;;;;20.40;2.83;;;;;;;-144.47;42.80;53191.78;5035163;28;20176;-89
2022/08/02 10:06:47;;;;;;;10.52;3.35;;;;;;;-144.47;42.52;53205.66;5053157;28;20033;-84
2022/08/02 10:09:22;;;;;;;7.43;2.72;;;;;;;-144.47;42.63;53211.63;5071092;28;20025;-88
2022/08/02 10:11:53;;;;;;;8.13;2.45;;;;;;;-144.47;41.93;53150.06;5052014;28;20228;-88
2022/08/02 10:14:26;;;;;;;11.77;3.22;;;;;;;-144.47;41.60;53195.75;5053661;28;20063;-88
2022/08/02 10:16:55;;;;;;;8.02;3.17;;;;;;;-144.47;41.50;53181.84;5055124;28;20026;-87
2022/08/02 10:19:40;;;;;;;9.73;2.28;;;;;;;-144.47;41.00;53177.88;5054923;28;20028;-87
2022/08/02 10:22:11;;;;;;;8.73;2.33;;;;;;;-144.47;40.98;53191.78;5054415;28;20032;-89
2022/08/02 10:24:44;;;;;;;12.35;2.65;;;;;;;-144.47;41.32;53173.88;5035731;28;20102;-87
2022/08/02 10:27:14;;;;;;;7.63;2.47;;;;;;;-144.47;41.33;53213.63;5034965;28;20022;-87
2022/08/02 10:29:42;;;;;;;7.72;2.38;;;;;;;-144.47;41.77;53179.84;5035089;28;20026;-88
2022/08/02 10:32:15;;;;;;;8.27;2.33;;;;;;;-144.47;41.45;53185.81;5050648;28;20035;-88
2022/08/02 10:35:25;;;;;;;7.10;2.28;;;;;;;-144.47;41.40;53183.81;5035322;28;20057;-89
2022/08/02 10:38:02;;;;;;;7.80;2.30;;;;;;;-144.47;41.13;53197.72;5032314;28;20088;-88
2022/08/02 10:40:46;;;;;;;7.15;2.38;;;;;;;-144.47;41.10;53201.69;5034667;28;20070;-88
2022/08/02 10:43:31;;;;;;;12.80;3.53;;;;;;;-144.47;41.08;53181.84;5031312;28;20151;-87
2022/08/02 10:46:35;;;;;;;7.13;2.25;;;;;;;-144.47;40.96;53173.88;5012402;28;20026;-89
2022/08/02 10:49:27;;;;;;;11.40;2.63;;;;;;;-144.47;40.66;53177.88;5053261;28;20154;-89
2022/08/02 10:51:59;;;;;;;6.38;2.40;;;;;;;-144.47;40.13;53189.78;5054733;28;20116;-88
2022/08/02 10:54:49;;;;;;;7.10;2.50;;;;;;;-144.47;40.08;53189.78;5043784;28;20053;-87
2022/08/02 10:57:43;;;;;;;7.45;2.40;;;;;;;-144.47;39.95;53201.69;4977511;28;20066;-88
2022/08/02 11:00:19;;;;;;;8.55;2.35;;;;;;;-144.47;40.02;53169.91;4990446;28;20127;-88
2022/08/02 11:02:49;;;;;;;4.78;2.38;;;;;;;-144.47;39.88;53165.94;4991793;28;20132;-89
2022/08/02 11:05:43;;;;;;;7.60;2.45;;;;;;;-144.47;38.96;53195.75;4989290;28;20031;-88
2022/08/02 11:08:19;;;;;;;7.00;2.08;;;;;;;-144.47;38.94;53177.88;4991286;28;20091;-80
2022/08/02 11:10:50;;;;;;;6.53;2.00;;;;;;;-144.47;39.27;53189.78;4977428;28;20019;-87
2022/08/02 11:13:25;;;;;;;5.35;1.98;;;;;;;-144.47;38.60;53195.75;4975844;28;20034;-89
2022/08/02 11:16:00;;;;;;;12.18;2.25;;;;;;;-144.47;38.52;53171.91;4973177;28;20137;-89
2022/08/02 11:18:51;;;;;;;3.60;1.77;;;;;;;-144.47;38.56;53163.97;4958002;28;20030;-89
2022/08/02 11:21:29;;;;;;;6.15;1.90;;;;;;;-144.47;38.50;53189.78;4988953;28;20047;-88
2022/08/02 11:23:55;;;;;;;;;;;;;;;-144.47;38.01;53207.66;5006744;28;20048;-89
2022/08/02 11:26:29;;;;;;;8.18;1.85;;;;;;;-144.47;37.94;53171.91;5012765;28;19910;-88
2022/08/02 11:29:02;;;;;;;5.88;2.03;;;;;;;-144.47;37.66;53152.03;4999485;28;20030;-87
2022/08/02 11:31:42;;;;;;;9.35;2.45;;;;;;;-144.47;37.56;53148.06;5003553;28;20023;-88
2022/08/02 11:34:11;;;;;;;6.72;1.88;;;;;;;-144.47;37.44;53142.09;5013068;28;20121;-89
2022/08/02 11:36:50;;;;;;;10.25;2.38;;;;;;;-144.47;37.80;53118.28;5031897;28;20165;-88
2022/08/02 11:39:18;;;;;;;4.70;1.83;;;;;;;-144.47;37.46;53167.94;5041639;28;20115;-88
2022/08/02 11:41:59;;;;;;;6.93;2.40;;;;;;;-144.47;37.35;53140.13;5051605;28;20045;-87
2022/08/02 11:44:27;;;;;;;8.35;1.98;;;;;;;-144.47;37.33;53152.03;5023722;28;20103;-87
2022/08/02 11:47:08;;;;;;;12.93;1.90;;;;;;;-144.47;37.17;53148.06;5023519;28;20024;-87